createdAt,value
2022-08-11T00:01:44.201Z,2.3
2022-08-11T00:03:46.073Z,1.7
2022-08-11T00:05:51.084Z,2.6
2022-08-11T00:07:53.007Z,2.2
2022-08-11T00:09:54.849Z,2.8
2022-08-11T00:11:58.439Z,2.6
2022-08-11T00:13:58.559Z,2.5
2022-08-11T00:16:00.423Z,2
2022-08-11T00:18:02.311Z,2.5
2022-08-11T00:20:14.134Z,2.6
2022-08-11T00:22:09.337Z,2.6
2022-08-11T00:24:11.046Z,2.4
2022-08-11T00:26:12.928Z,2.8
2022-08-11T00:28:14.794Z,2.4
2022-08-11T00:30:16.700Z,2.7
2022-08-11T00:32:18.548Z,2.4
2022-08-11T00:34:23.555Z,3
2022-08-11T00:36:25.791Z,2.6
2022-08-11T00:38:27.316Z,2.5
2022-08-11T00:43:33.553Z,2.9
2022-08-11T00:45:35.446Z,2.7
2022-08-11T00:47:40.449Z,3.3
2022-08-11T00:49:42.319Z,2.1
2022-08-11T00:51:56.646Z,3.4
2022-08-11T00:53:46.066Z,2.5
2022-08-11T00:55:55.773Z,3.1
2022-08-11T00:57:49.833Z,2.6
2022-08-11T01:01:56.733Z,2.7
2022-08-11T01:10:07.303Z,3.2
2022-08-11T01:12:06.127Z,2.6
2022-08-11T01:14:08.009Z,2.8
2022-08-11T01:16:13.056Z,2.8
2022-08-11T01:18:14.913Z,2.9
2022-08-11T01:20:48.367Z,3.6
2022-08-11T01:22:18.687Z,3
2022-08-11T01:24:20.598Z,2.7
2022-08-11T01:26:22.488Z,3
2022-08-11T01:28:24.354Z,3.3
2022-08-11T01:30:29.391Z,3.4
2022-08-11T01:32:31.273Z,4.2
2022-08-11T01:34:33.157Z,2.8
2022-08-11T01:35:35.670Z,3.5
2022-08-11T01:37:37.555Z,3.8
2022-08-11T01:43:46.363Z,3.8
2022-08-11T01:45:48.234Z,3.9
2022-08-11T01:51:53.954Z,3.7
2022-08-11T01:53:55.831Z,3.7
2022-08-11T01:55:57.716Z,4
2022-08-11T01:58:02.768Z,3.5
2022-08-11T02:00:04.664Z,4
2022-08-11T02:02:06.551Z,3.3
2022-08-11T02:04:08.563Z,4.3
2022-08-11T02:10:14.097Z,3.5
2022-08-11T02:18:24.861Z,4.3
2022-08-11T02:20:26.756Z,4.1
2022-08-11T02:22:28.689Z,4.2
2022-08-11T02:24:30.576Z,4.4
2022-08-11T02:26:35.626Z,4.4
2022-08-11T02:28:40.258Z,3.4
2022-08-11T02:30:39.421Z,3.6
2022-08-11T02:33:43.857Z,3.6
2022-08-11T02:35:45.749Z,3.8
2022-08-11T02:37:47.647Z,4.3
2022-08-11T02:41:54.610Z,4.3
2022-08-11T02:43:56.510Z,4.4
2022-08-11T02:45:58.406Z,4.3
2022-08-11T02:48:00.321Z,4.1
2022-08-11T02:50:06.558Z,3.9
2022-08-11T02:52:04.120Z,4.3
2022-08-11T02:54:09.180Z,4.3
2022-08-11T02:56:11.074Z,4.4
2022-08-11T02:58:12.999Z,4.4
2022-08-11T03:00:14.901Z,4.3
2022-08-11T03:02:16.814Z,3.9
2022-08-11T03:04:18.729Z,3.7
2022-08-11T03:06:20.621Z,4.9
2022-08-11T03:08:25.667Z,5.8
2022-08-11T03:10:28.106Z,4.8
2022-08-11T03:12:30.030Z,4.3
2022-08-11T03:14:31.929Z,4.2
2022-08-11T03:16:33.818Z,4.7
2022-08-11T03:18:35.723Z,4.8
2022-08-11T03:20:38.343Z,4.6
2022-08-11T03:22:42.744Z,4.9
2022-08-11T03:24:44.653Z,5.1
2022-08-11T03:26:46.578Z,4.4
2022-08-11T03:29:18.316Z,4.8
2022-08-11T03:31:17.027Z,5.3
2022-08-11T03:33:18.968Z,5.3
2022-08-11T03:35:23.962Z,5.6
2022-08-11T03:37:25.888Z,4.7
2022-08-11T03:39:27.857Z,5
2022-08-11T03:42:01.949Z,5.3
2022-08-11T03:43:31.631Z,4.7
2022-08-11T03:45:37.389Z,4.4
2022-08-11T03:47:35.456Z,5.5
2022-08-11T03:49:40.521Z,4.8
2022-08-11T03:51:44.819Z,5
2022-08-11T03:53:44.311Z,4.8
2022-08-11T03:55:46.246Z,5.3
2022-08-11T03:57:48.157Z,4.8
2022-08-11T03:59:50.094Z,4.7
2022-08-11T04:01:52.104Z,5.7
2022-08-11T04:03:57.058Z,4.7
2022-08-11T04:05:58.979Z,5
2022-08-11T04:08:00.926Z,5.7
2022-08-11T04:10:02.814Z,5.8
2022-08-11T04:12:04.731Z,6.8
2022-08-11T04:14:06.662Z,5.2
2022-08-11T04:16:11.339Z,5.3
2022-08-11T04:18:13.620Z,6.8
2022-08-11T04:20:15.541Z,5.6
2022-08-11T04:22:17.460Z,5.7
2022-08-11T04:24:34.893Z,5.8
2022-08-11T04:25:21.898Z,6.2
2022-08-11T04:31:50.300Z,5.8
2022-08-11T04:33:34.358Z,6.2
2022-08-11T04:35:34.591Z,5.8
2022-08-11T04:37:36.503Z,8.1
2022-08-11T04:39:38.502Z,6.2
2022-08-11T04:41:40.336Z,6.6
2022-08-11T04:44:05.569Z,5.7
2022-08-11T04:45:47.312Z,6.5
2022-08-11T04:48:03.958Z,6.9
2022-08-11T04:49:51.166Z,6.1
2022-08-11T04:51:53.077Z,6.6
2022-08-11T04:53:55.011Z,7.1
2022-08-11T04:55:56.925Z,7
2022-08-11T04:57:58.835Z,6.8
2022-08-11T05:00:03.900Z,7.9
2022-08-11T05:02:05.897Z,7.1
2022-08-11T05:06:09.643Z,6.4
2022-08-11T05:08:11.551Z,5.9
2022-08-11T05:10:13.475Z,7
2022-08-11T05:12:15.392Z,5.6
2022-08-11T05:14:20.448Z,6.1
2022-08-11T05:16:22.338Z,5.8
2022-08-11T05:18:24.251Z,5.3
2022-08-11T05:21:28.659Z,5.9
2022-08-11T05:23:30.558Z,5.2
2022-08-11T05:26:09.339Z,5.4
2022-08-11T05:33:43.192Z,5.2
2022-08-11T05:36:00.108Z,6.3
2022-08-11T05:37:46.950Z,6.2
2022-08-11T05:39:48.897Z,6.2
2022-08-11T05:41:53.888Z,6.7
2022-08-11T05:44:21.656Z,5
2022-08-11T05:46:03.598Z,5.3
2022-08-11T05:48:01.052Z,5.8
2022-08-11T05:50:02.931Z,6.2
2022-08-11T05:52:12.898Z,5.9
2022-08-11T05:56:11.765Z,6.5
2022-08-11T05:58:13.835Z,6
2022-08-11T06:00:15.549Z,5.9
2022-08-11T06:02:17.421Z,5.6
2022-08-11T06:06:21.183Z,6.4
2022-08-11T06:08:23.391Z,6.2
2022-08-11T06:10:28.121Z,6.8
2022-08-11T06:12:29.977Z,5.6
2022-08-11T06:15:34.360Z,5.2
2022-08-11T06:17:38.820Z,6.8
2022-08-11T06:19:38.158Z,5.5
2022-08-11T06:21:40.017Z,5.2
2022-08-11T06:23:45.059Z,6.3
2022-08-11T06:25:46.894Z,5.8
2022-08-11T06:27:48.782Z,5.3
2022-08-11T06:29:55.048Z,4.9
2022-08-11T06:31:52.474Z,5.9
2022-08-11T06:33:54.363Z,6.3
2022-08-11T06:35:56.218Z,5.1
2022-08-11T06:40:03.295Z,5.7
2022-08-11T06:44:06.832Z,6.1
2022-08-11T06:46:08.698Z,6
2022-08-11T06:48:10.555Z,6.3
2022-08-11T06:50:12.426Z,4.7
2022-08-11T06:52:44.010Z,5.9
2022-08-11T06:54:19.310Z,5.2
2022-08-11T06:56:21.167Z,5.5
2022-08-11T06:58:23.045Z,5.3
2022-08-11T07:00:24.913Z,5.1
2022-08-11T07:02:30.963Z,4.9
2022-08-11T07:04:28.591Z,5.5
2022-08-11T07:06:39.902Z,5.6
2022-08-11T07:08:36.036Z,4.5
2022-08-11T07:10:37.289Z,5.2
2022-08-11T07:13:05.783Z,5
2022-08-11T07:15:07.617Z,4.1
2022-08-11T07:17:09.482Z,4.4
2022-08-11T07:19:16.658Z,4.9
2022-08-11T07:22:00.262Z,4.3
2022-08-11T07:23:18.150Z,4.6
2022-08-11T07:25:20.002Z,3.7
2022-08-11T07:27:21.842Z,4.5
2022-08-11T07:29:23.681Z,4.3
2022-08-11T07:31:25.495Z,4.2
2022-08-11T07:34:07.921Z,4.3
2022-08-11T07:35:32.360Z,4.7
2022-08-11T07:37:34.199Z,5.1
2022-08-11T07:39:36.157Z,4.2
2022-08-11T07:41:37.851Z,4.7
2022-08-11T07:43:39.677Z,4.1
2022-08-11T07:45:41.495Z,3.9
2022-08-11T07:47:46.518Z,3.7
2022-08-11T07:49:48.305Z,4.8
2022-08-11T07:58:15.066Z,4
2022-08-11T08:00:04.166Z,3.9
2022-08-11T08:04:04.241Z,4
2022-08-11T08:06:06.035Z,4.5
2022-08-11T08:07:08.536Z,3.5
2022-08-11T08:09:10.349Z,3.6
2022-08-11T08:11:12.143Z,3.7
2022-08-11T08:13:13.953Z,3.6
2022-08-11T08:15:18.918Z,2.7
2022-08-11T08:17:20.702Z,4
2022-08-11T08:19:22.529Z,3.7
2022-08-11T08:21:24.312Z,3.6
2022-08-11T08:23:26.103Z,2.9
2022-08-11T08:25:27.882Z,2.9
2022-08-11T08:27:29.681Z,7.5
2022-08-11T08:29:34.649Z,2.9
2022-08-11T08:31:36.425Z,3
2022-08-11T08:33:38.213Z,3
2022-08-11T08:35:54.418Z,2.4
2022-08-11T08:37:46.881Z,2.3
2022-08-11T08:39:43.641Z,2.4
2022-08-11T08:41:45.334Z,2.7
2022-08-11T08:43:50.317Z,1.8
2022-08-11T08:45:52.050Z,2
2022-08-11T08:47:53.813Z,1.7
2022-08-11T08:49:55.583Z,2
2022-08-11T08:52:26.058Z,2.3
2022-08-11T08:53:59.092Z,2.2
2022-08-11T08:56:00.901Z,1.4
2022-08-11T08:58:05.839Z,1.7
2022-08-11T09:00:07.575Z,2.1
2022-08-11T09:02:09.323Z,1.7
2022-08-11T09:03:38.999Z,1.7
2022-08-11T09:05:13.523Z,1.6
2022-08-11T09:07:15.264Z,1.6
2022-08-11T09:09:16.997Z,1.6
2022-08-11T09:11:21.918Z,2.2
2022-08-11T09:13:23.632Z,1.7
2022-08-11T09:15:25.373Z,2.3
2022-08-11T09:17:27.089Z,2.2
2022-08-11T09:19:28.799Z,1.7
2022-08-11T09:21:49.156Z,1.5
2022-08-11T09:25:37.129Z,1.6
2022-08-11T09:27:38.977Z,1.5
2022-08-11T09:29:40.543Z,2.6
2022-08-11T09:33:43.945Z,1.9
2022-08-11T09:35:45.677Z,1.8
2022-08-11T09:37:54.343Z,2.7
2022-08-11T09:39:52.312Z,1.7
2022-08-11T09:42:00.759Z,2.1
2022-08-11T09:43:55.608Z,2.2
2022-08-11T09:45:57.302Z,2
2022-08-11T09:47:58.982Z,2.2
2022-08-11T09:50:01.158Z,2.7
2022-08-11T09:52:05.496Z,2
2022-08-11T09:54:07.203Z,2.2
2022-08-11T09:56:08.862Z,2
2022-08-11T09:58:10.547Z,1.5
2022-08-11T10:01:14.694Z,1.8
2022-08-11T10:03:16.332Z,1.7
2022-08-11T10:05:17.982Z,1.8
2022-08-11T10:09:25.234Z,2.1
2022-08-11T10:11:26.126Z,1
2022-08-11T10:14:30.449Z,1.8
2022-08-11T10:15:29.427Z,1.8
2022-08-11T10:17:31.087Z,2.7
2022-08-11T10:19:32.737Z,2
2022-08-11T10:24:00.639Z,1.5
2022-08-11T10:25:40.847Z,1.7
2022-08-11T10:28:16.779Z,2.3
2022-08-11T10:29:45.349Z,1.7
2022-08-11T10:31:45.759Z,1.7
2022-08-11T10:33:48.368Z,1.5
2022-08-11T10:35:52.209Z,1.5
2022-08-11T10:38:06.795Z,1.4
2022-08-11T10:39:55.533Z,1.4
2022-08-11T10:44:02.815Z,1.8
2022-08-11T10:46:00.287Z,1.5
2022-08-11T10:48:01.992Z,2.4
2022-08-11T10:50:06.731Z,2.1
2022-08-11T10:52:08.315Z,2
2022-08-11T10:54:12.385Z,2
2022-08-11T10:58:39.809Z,1.7
2022-08-11T11:00:41.417Z,1.7
2022-08-11T11:02:46.246Z,2.5
2022-08-11T11:04:50.957Z,1.6
2022-08-11T11:06:49.447Z,1.8
2022-08-11T11:08:51.097Z,1.8
2022-08-11T11:14:58.949Z,2.7
2022-08-11T11:19:02.280Z,1.9
2022-08-11T11:21:03.870Z,1.1
2022-08-11T11:23:05.460Z,1.5
2022-08-11T11:25:07.043Z,1.5
2022-08-11T11:27:08.636Z,1.1
2022-08-11T11:29:10.232Z,1.4
2022-08-11T11:31:15.844Z,1.4
2022-08-11T11:33:16.603Z,1.1
2022-08-11T11:35:19.836Z,2.1
2022-08-11T11:37:21.280Z,1.3
2022-08-11T11:39:23.005Z,1.3
2022-08-11T11:41:24.464Z,1.3
2022-08-11T11:43:26.024Z,1.4
2022-08-11T11:45:30.816Z,1.3
2022-08-11T11:47:32.437Z,1.4
2022-08-11T11:49:33.986Z,1.5
2022-08-11T11:50:36.378Z,1.1
2022-08-11T11:54:39.504Z,1.2
2022-08-11T11:56:41.092Z,1.4
2022-08-11T11:58:45.877Z,1.4
2022-08-11T12:00:47.449Z,1.5
2022-08-11T12:02:49.052Z,2
2022-08-11T12:04:50.588Z,0.9
2022-08-11T12:06:52.140Z,1.9
2022-08-11T12:08:53.750Z,1.1
2022-08-11T12:10:55.297Z,1.3
2022-08-11T12:13:00.116Z,1.5
2022-08-11T12:15:01.696Z,1.3
2022-08-11T12:17:03.252Z,2.8
2022-08-11T12:19:04.809Z,1.5
2022-08-11T12:21:06.363Z,1.3
2022-08-11T12:23:07.928Z,1.6
2022-08-11T12:25:09.482Z,1.2
2022-08-11T12:27:16.477Z,1.1
2022-08-11T12:29:15.818Z,1.4
2022-08-11T12:31:17.363Z,1.4
2022-08-11T12:33:24.184Z,1.5
2022-08-11T12:35:20.514Z,1.4
2022-08-11T12:37:22.072Z,1.3
2022-08-11T12:40:16.373Z,1.7
2022-08-11T12:41:28.449Z,1.9
2022-08-11T12:43:38.312Z,1.8
2022-08-11T12:45:31.590Z,1.7
2022-08-11T12:46:33.954Z,1.5
2022-08-11T12:48:59.828Z,1.2
2022-08-11T12:50:37.081Z,1.4
2022-08-11T12:52:38.623Z,1.5
2022-08-11T12:54:43.404Z,1.7
2022-08-11T12:58:46.515Z,1.7
2022-08-11T13:00:48.134Z,1.3
2022-08-11T13:02:49.618Z,1.8
2022-08-11T13:04:51.169Z,1.4
2022-08-11T13:06:52.751Z,1.8
2022-08-11T13:09:01.062Z,2.1
2022-08-11T13:10:59.070Z,2.3
2022-08-11T13:13:00.595Z,1.8
2022-08-11T13:15:02.248Z,1.9
2022-08-11T13:17:03.725Z,2.8
2022-08-11T13:19:05.243Z,2
2022-08-11T13:21:06.812Z,1.4
2022-08-11T13:23:11.587Z,1.2
2022-08-11T13:25:14.834Z,1.5
2022-08-11T13:29:16.201Z,1.4
2022-08-11T13:31:17.750Z,1.3
2022-08-11T13:33:19.316Z,1.3
2022-08-11T13:35:20.869Z,1.4
2022-08-11T13:38:18.335Z,2.6
2022-08-11T13:39:27.272Z,1.6
2022-08-11T13:41:28.725Z,1.8
2022-08-11T13:42:31.100Z,1
2022-08-11T13:44:32.645Z,1.3
2022-08-11T13:46:34.221Z,1.4
2022-08-11T13:48:35.743Z,1.8
2022-08-11T13:50:40.522Z,1.5
2022-08-11T13:52:42.066Z,1.7
2022-08-11T13:54:43.596Z,1.2
2022-08-11T13:56:45.157Z,1.3
2022-08-11T13:58:46.994Z,1.8
2022-08-11T14:04:54.534Z,1.5
2022-08-11T14:06:56.073Z,1.4
2022-08-11T14:08:57.602Z,1.3
2022-08-11T14:10:59.163Z,1.6
2022-08-11T14:13:00.697Z,1.6
2022-08-11T14:23:11.586Z,1.9
2022-08-11T14:25:12.827Z,1.9
2022-08-11T14:27:39.130Z,2
2022-08-11T14:29:15.993Z,2.1
2022-08-11T14:31:17.440Z,2
2022-08-11T14:33:22.180Z,1.7
2022-08-11T14:35:23.711Z,1.2
2022-08-11T14:37:25.259Z,2
2022-08-11T14:39:53.221Z,1.8
2022-08-11T14:42:08.537Z,1.6
2022-08-11T14:44:12.789Z,1.6
2022-08-11T14:46:00.838Z,1.7
2022-08-11T14:48:02.363Z,1.1
2022-08-11T14:50:11.606Z,1.2
2022-08-11T14:52:05.389Z,2.1
2022-08-11T14:54:06.906Z,1.2
2022-08-11T14:56:08.423Z,1.3
2022-08-11T14:58:10.238Z,1.4
2022-08-11T15:00:14.712Z,1.5
2022-08-11T15:02:16.096Z,1.4
2022-08-11T15:04:34.827Z,1.1
2022-08-11T15:06:19.050Z,1.5
2022-08-11T15:08:20.432Z,1.9
2022-08-11T15:10:21.830Z,1.4
2022-08-11T15:12:32.735Z,1.1
2022-08-11T15:20:32.000Z,1.4
2022-08-11T15:22:33.303Z,1.6
2022-08-11T15:24:34.657Z,3.6
2022-08-11T15:26:35.959Z,2
2022-08-11T15:28:40.398Z,1.2
2022-08-11T15:30:41.718Z,1.2
2022-08-11T15:32:43.022Z,1.7
2022-08-11T15:33:45.239Z,1
2022-08-11T15:41:58.245Z,1.3
2022-08-11T15:43:54.848Z,1.5
2022-08-11T15:45:56.141Z,2.2
2022-08-11T15:56:05.866Z,2.4
2022-08-11T15:58:07.188Z,1.5
2022-08-11T16:00:08.501Z,1.7
2022-08-11T16:02:09.957Z,1.9
2022-08-11T16:04:12.607Z,1.6
2022-08-11T16:06:12.550Z,1.5
2022-08-11T16:08:14.406Z,2
2022-08-11T16:10:19.022Z,2.1
2022-08-11T16:16:22.963Z,1.7
2022-08-11T16:18:24.470Z,1.6
2022-08-11T16:20:25.948Z,2.2
2022-08-11T16:22:27.442Z,2.6
2022-08-11T16:27:02.259Z,2
2022-08-11T16:27:11.732Z,2.1
2022-08-11T16:28:35.154Z,1.4
2022-08-11T16:29:37.541Z,1.3
2022-08-11T16:31:39.035Z,1.4
2022-08-11T16:33:50.175Z,1.5
2022-08-11T16:43:51.437Z,1.4
2022-08-11T16:45:52.950Z,1.2
2022-08-11T16:49:56.047Z,1.2
2022-08-11T16:52:00.809Z,1.9
2022-08-11T16:54:05.760Z,1.5
2022-08-11T16:58:05.399Z,0.9
2022-08-11T17:00:06.977Z,1.6
2022-08-11T17:02:08.490Z,1.8
2022-08-11T17:04:10.056Z,1.8
2022-08-11T17:06:14.794Z,1.8
2022-08-11T17:08:16.347Z,1.8
2022-08-11T17:10:31.894Z,6.5
2022-08-11T17:14:36.945Z,1.5
2022-08-11T17:20:42.363Z,1.3
2022-08-11T17:22:31.003Z,2
2022-08-11T17:24:32.565Z,1
2022-08-11T17:26:03.275Z,1.7
2022-08-11T17:27:38.260Z,1.3
2022-08-11T17:29:54.838Z,1.6
2022-08-11T17:31:41.113Z,2.8
2022-08-11T17:33:45.892Z,1.3
2022-08-11T17:35:47.450Z,1.6
2022-08-11T17:37:49.013Z,1.2
2022-08-11T17:39:50.744Z,1.4
2022-08-11T17:41:52.132Z,1.6
2022-08-11T17:43:53.724Z,1.2
2022-08-11T17:45:55.278Z,1.8
2022-08-11T17:48:00.079Z,1.4
2022-08-11T17:50:09.426Z,1.9
2022-08-11T17:52:03.200Z,1.1
2022-08-11T17:54:23.757Z,1.7
2022-08-11T17:56:06.345Z,1.1
2022-08-11T17:58:07.912Z,1.1
2022-08-11T18:00:09.519Z,1.8
2022-08-11T18:02:14.352Z,1.3
2022-08-11T18:04:15.848Z,2.5
2022-08-11T18:06:17.445Z,1.5
2022-08-11T18:08:19.028Z,3.8
2022-08-11T18:10:20.616Z,2
2022-08-11T18:12:22.195Z,2.6
2022-08-11T18:14:23.771Z,1.5
2022-08-11T18:16:28.601Z,1.6
2022-08-11T18:18:30.155Z,1.1
2022-08-11T18:20:31.750Z,0.9
2022-08-11T18:22:59.916Z,1.2
2022-08-11T18:29:07.896Z,1.2
2022-08-11T18:31:12.952Z,1.5
2022-08-11T18:33:45.134Z,1
2022-08-11T18:35:12.705Z,1.3
2022-08-11T18:37:19.912Z,2.2
2022-08-11T18:39:15.963Z,1
2022-08-11T18:41:17.563Z,5.2
2022-08-11T18:43:26.816Z,2.9
2022-08-11T18:45:23.971Z,2.5
2022-08-11T18:47:27.439Z,1.4
2022-08-11T18:49:27.226Z,1.1
2022-08-11T18:51:31.360Z,0.9
2022-08-11T18:53:30.502Z,1.4
2022-08-11T18:55:32.105Z,1.2
2022-08-11T18:57:49.497Z,1.2
2022-08-11T18:59:38.585Z,1.7
2022-08-11T19:01:44.217Z,1.3
2022-08-11T19:03:48.609Z,1
2022-08-11T19:06:06.050Z,1.2
2022-08-11T19:07:45.132Z,1.6
2022-08-11T19:09:46.801Z,1
2022-08-11T19:11:51.641Z,1.2
2022-08-11T19:13:53.300Z,1.7
2022-08-11T19:15:54.930Z,0.9
2022-08-11T19:18:59.011Z,4
2022-08-11T19:21:00.676Z,1.6
2022-08-11T19:25:07.205Z,1.7
2022-08-11T19:30:07.192Z,1.6
2022-08-11T19:31:12.231Z,2.9
2022-08-11T19:33:13.894Z,1.2
2022-08-11T19:35:15.565Z,1.8
2022-08-11T19:37:22.008Z,1
2022-08-11T19:39:22.228Z,2.6
2022-08-11T19:41:56.627Z,1.4
2022-08-11T19:43:26.450Z,1.2
2022-08-11T19:45:27.157Z,1
2022-08-11T19:47:28.858Z,1.6
2022-08-11T19:49:30.536Z,2.2
2022-08-11T19:51:32.209Z,1
2022-08-11T19:53:37.094Z,1.3
2022-08-11T19:55:38.785Z,0.9
2022-08-11T19:57:40.544Z,1.6
2022-08-11T19:59:42.141Z,1.1
2022-08-11T20:02:01.215Z,1.3
2022-08-11T20:03:45.526Z,1.2
2022-08-11T20:05:55.473Z,1.1
2022-08-11T20:07:52.123Z,1.1
2022-08-11T20:10:06.237Z,1.4
2022-08-11T20:11:55.532Z,1.1
2022-08-11T20:12:57.953Z,1.2
2022-08-11T20:14:59.687Z,1.4
2022-08-11T20:17:01.407Z,1
2022-08-11T20:25:11.389Z,1.4
2022-08-11T20:27:24.281Z,1.4
2022-08-11T20:29:14.798Z,2.1
2022-08-11T20:31:16.532Z,1.4
2022-08-11T20:33:18.239Z,1.5
2022-08-11T20:39:26.598Z,1.1
2022-08-11T20:44:07.632Z,1.4
2022-08-11T20:49:44.327Z,1.7
2022-08-11T20:51:40.143Z,1.5
2022-08-11T20:53:41.881Z,1.3
2022-08-11T20:55:51.863Z,1.8
2022-08-11T20:58:01.439Z,1.6
2022-08-11T20:59:52.760Z,1.3
2022-08-11T21:01:52.361Z,1.7
2022-08-11T21:04:00.650Z,1.3
2022-08-11T21:06:09.009Z,1.4
2022-08-11T21:07:59.203Z,1.7
2022-08-11T21:08:59.796Z,1.7
2022-08-11T21:11:01.579Z,1.5
2022-08-11T21:13:25.572Z,1.3
2022-08-11T21:15:05.786Z,2
2022-08-11T21:17:27.062Z,1.2
2022-08-11T21:19:11.808Z,2
2022-08-11T21:21:16.493Z,1.6
2022-08-11T21:23:23.603Z,1.9
2022-08-11T21:25:17.160Z,1.4
2022-08-11T21:27:24.802Z,3
2022-08-11T21:29:20.715Z,2
2022-08-11T21:31:25.663Z,1.9
2022-08-11T21:33:27.426Z,1.5
2022-08-11T21:35:29.233Z,1.6
2022-08-11T21:37:31.201Z,1.5
2022-08-11T21:43:36.382Z,1.2
2022-08-11T21:47:44.318Z,2
2022-08-11T21:49:44.941Z,1.9
2022-08-11T21:51:46.758Z,1.7
2022-08-11T21:53:48.534Z,1.5
2022-08-11T21:57:52.133Z,2
2022-08-11T21:59:57.108Z,2.5
2022-08-11T22:04:00.725Z,1.1
2022-08-11T22:06:29.140Z,1.7
2022-08-11T22:10:41.375Z,1.8
2022-08-11T22:12:40.984Z,2
2022-08-11T22:16:41.346Z,2.3
2022-08-11T22:20:44.944Z,1.8
2022-08-11T22:22:51.223Z,2.5
2022-08-11T22:24:48.551Z,2
2022-08-11T22:28:55.334Z,1.6
2022-08-11T22:30:57.152Z,1.9
2022-08-11T22:32:58.960Z,2
2022-08-11T22:35:00.785Z,1.5
2022-08-11T22:37:02.598Z,1.8
2022-08-11T22:41:09.382Z,2.1
2022-08-11T22:51:18.480Z,1.2
2022-08-11T22:53:20.277Z,2
2022-08-11T22:55:25.277Z,2.3
2022-08-11T22:57:27.104Z,2
2022-08-11T22:59:28.911Z,1.8
2022-08-11T23:00:31.404Z,1.7
2022-08-11T23:02:33.228Z,1.8
2022-08-11T23:04:35.062Z,2.1
2022-08-11T23:06:36.881Z,2.6
2022-08-11T23:08:41.865Z,2.4
2022-08-11T23:10:43.680Z,2.1
2022-08-11T23:12:46.960Z,2.3
2022-08-11T23:14:47.341Z,1.8
2022-08-11T23:16:50.721Z,2.1
2022-08-11T23:18:52.512Z,2
2022-08-11T23:20:54.336Z,2.3
2022-08-11T23:22:59.334Z,2
2022-08-11T23:25:01.179Z,1.5
2022-08-11T23:29:05.159Z,2.2
2022-08-11T23:31:06.669Z,2.4
2022-08-11T23:33:08.498Z,2
2022-08-11T23:35:39.111Z,2.3
2022-08-11T23:37:15.316Z,2.4
2022-08-11T23:39:17.245Z,2.1
2022-08-11T23:41:19.008Z,2.3
2022-08-11T23:43:20.877Z,2
2022-08-11T23:45:22.904Z,2.8
2022-08-11T23:49:26.396Z,2.4
2022-08-11T23:51:40.397Z,2.1
2022-08-11T23:53:33.277Z,2.7
2022-08-11T23:55:35.102Z,2.2
2022-08-11T23:56:37.591Z,2.8
2022-08-11T23:58:39.452Z,2.3
